CDT,Max TemperatureF,Mean TemperatureF,Min TemperatureF,Max Dew PointF,MeanDew PointF,Min DewpointF,Max Humidity, Mean Humidity, Min Humidity, Max Sea Level PressureIn, Mean Sea Level PressureIn, Min Sea Level PressureIn, Max VisibilityMiles, Mean VisibilityMiles, Min VisibilityMiles, Max Wind SpeedMPH, Mean Wind SpeedMPH, Max Gust SpeedMPH,PrecipitationIn, CloudCover, Events, WindDirDegrees
2012-10-1,83,73,62,63,59,56,84,62,40,29.84,29.79,29.75,10,10,10,22,13,25,0.00,2,,304
2012-10-2,83,74,64,63,60,54,81,59,37,29.98,29.91,29.84,10,10,10,17,8,22,0.01,1,Rain-Thunderstorm,339
2012-10-3,81,75,68,68,65,60,87,75,62,30.08,30.01,29.96,10,10,10,13,7,17,0.00,0,,88
2012-10-4,85,79,73,70,67,60,79,69,58,30.17,30.12,30.06,10,10,10,15,10,18,0.00,0,,141
2012-10-5,84,79,73,70,68,66,82,72,61,30.13,30.07,30.01,10,10,10,12,8,28,0.00,0,,158
2012-10-6,84,76,67,73,69,65,90,78,65,30.04,30.01,29.96,10,10,10,23,8,28,0.00,2,,94
2012-10-7,70,65,59,63,57,53,90,76,61,30.17,30.11,30.06,10,10,10,24,17,32,0.00,7,,9
2012-10-8,70,65,60,58,54,50,78,70,61,30.21,30.15,30.10,10,10,8,20,12,25,0.00,5,,16
2012-10-9,81,73,64,71,65,57,84,73,62,30.11,30.05,29.99,10,10,10,18,12,22,0.00,3,,132
2012-10-10,85,80,75,76,74,71,94,84,74,30.12,30.07,30.01,10,10,8,25,9,33,0.00,3,,127
2012-10-11,85,82,78,75,73,71,91,78,65,30.17,30.12,30.09,10,10,10,17,12,21,0.00,2,,120
2012-10-12,86,81,76,74,73,72,94,80,65,30.19,30.15,30.12,10,10,10,16,10,22,0.00,0,,133
2012-10-13,86,82,78,76,74,72,85,78,70,30.13,30.07,30.00,10,10,10,21,15,24,0.00,2,,160
2012-10-14,86,82,77,75,73,69,91,78,65,30.11,30.02,29.98,10,10,10,20,10,24,0.00,1,,194
2012-10-15,81,76,71,75,64,58,91,73,54,30.06,30.02,29.96,10,10,10,18,9,22,0.00,1,,8
2012-10-16,81,73,65,68,64,60,100,79,58,29.99,29.90,29.83,10,9,4,21,8,25,0.50,3,Rain,71
2012-10-17,85,53,21,78,74,66,97,86,74,29.80,29.75,29.67,10,10,10,21,13,25,0.00,2,,179
2012-10-18,81,77,72,78,66,53,100,71,42,29.96,29.83,29.73,10,10,9,24,13,29,0.00,6,,17
2012-10-19,82,74,65,57,51,38,66,44,21,30.03,29.97,29.93,10,10,10,16,7,20,0.00,1,,50
2012-10-20,84,76,67,69,61,55,74,59,43,29.98,29.93,29.88,10,10,10,20,11,24,0.00,0,,154
2012-10-21,85,81,76,74,72,70,87,76,65,30.01,29.96,29.91,10,10,10,17,13,21,0.00,0,,160
2012-10-22,85,81,76,73,72,70,88,77,65,30.05,30.01,29.97,10,10,10,17,12,21,0.00,1,,136
2012-10-23,83,79,75,72,70,68,87,76,65,30.02,29.98,29.96,10,10,10,16,8,20,0.00,1,,131
2012-10-24,83,78,73,76,73,71,93,84,74,30.02,29.96,29.93,10,10,10,18,9,23,T,2,,125
2012-10-25,84,81,77,75,73,72,91,78,65,29.94,29.90,29.87,10,10,10,18,12,22,0.00,2,,152
2012-10-26,77,67,57,74,63,52,94,84,73,30.15,30.02,29.93,10,10,10,33,19,41,0.00,6,,347
2012-10-27,66,60,54,51,45,42,80,61,42,30.21,30.14,30.06,10,10,10,33,22,44,0.00,4,,358
2012-10-28,67,60,53,42,39,35,66,49,32,30.24,30.19,30.14,10,10,10,23,14,28,0.00,1,,15
2012-10-29,66,60,53,45,40,34,66,48,29,30.28,30.21,30.15,10,10,8,16,8,21,0.00,0,,23
2012-10-30,73,65,56,59,54,47,93,73,53,30.15,30.09,30.02,10,10,7,13,5,22,0.00,0,,138
2012-10-31,80,71,61,69,65,59,100,81,62,30.08,30.02,29.96,10,10,10,15,5,17,0.00,0,,199